Time;durP1;ratioP1;P1;durP2;ratioP2;P2;SDS_P1;SDS_P2;PMS_P1;PMS_P2;Temp;Humidity;BMP_temperature;BMP_pressure;BME280_temperature;BME280_humidity;BME280_pressure;Samples;Min_cycle;Max_cycle;Signal;HPM_P1;HPM_P2
2021/11/12 00:14:19;;;;;;;0.38;0.38;;;5.10;99.90;;;;;;5013139;28;20490;-77
2021/11/12 00:16:45;;;;;;;0.43;0.43;;;5.10;99.90;;;;;;5011943;28;20065;-77
2021/11/12 00:19:11;;;;;;;0.30;0.30;;;5.00;99.90;;;;;;5011954;28;20474;-76
2021/11/12 00:21:37;;;;;;;2.58;2.38;;;4.90;99.90;;;;;;5013240;28;20025;-76
2021/11/12 00:24:03;;;;;;;0.88;0.88;;;4.80;99.90;;;;;;5011852;28;20029;-76
2021/11/12 00:26:29;;;;;;;0.82;0.82;;;4.70;99.90;;;;;;5011566;28;20033;-76
2021/11/12 00:28:58;;;;;;;2.30;2.20;;;4.70;99.90;;;;;;5011742;28;20025;-76
2021/11/12 00:39:21;;;;;;;0.30;0.30;;;4.80;99.90;;;;;;5011676;28;20481;-75
2021/11/12 00:41:41;;;;;;;0.40;0.40;;;4.70;99.90;;;;;;5010666;28;20034;-76
2021/11/12 00:47:04;;;;;;;2.65;2.47;;;4.40;99.90;;;;;;5012645;28;20060;-75
2021/11/12 00:49:31;;;;;;;0.50;0.50;;;4.30;99.90;;;;;;5012028;28;20129;-76
2021/11/12 00:52:01;;;;;;;0.30;0.30;;;4.40;99.90;;;;;;5011529;28;20132;-76
2021/11/12 00:54:27;;;;;;;0.85;0.85;;;4.40;99.90;;;;;;5012643;28;20026;-76
2021/11/12 00:56:53;;;;;;;1.50;1.27;;;4.30;99.90;;;;;;5012613;28;20126;-76
2021/11/12 00:59:20;;;;;;;3.95;1.38;;;4.60;99.90;;;;;;5012448;28;20033;-75
2021/11/12 01:01:47;;;;;;;0.40;0.40;;;4.60;99.90;;;;;;5012538;28;20104;-76
2021/11/12 01:04:21;;;;;;;0.88;0.88;;;4.50;99.90;;;;;;5012410;28;20547;-76
2021/11/12 01:06:48;;;;;;;0.38;0.38;;;4.50;99.90;;;;;;5012366;28;20025;-76
2021/11/12 01:09:17;;;;;;;0.30;0.30;;;4.60;99.90;;;;;;5010774;28;20022;-76
2021/11/12 01:11:46;;;;;;;0.40;0.40;;;4.70;99.90;;;;;;5011918;28;20109;-76
2021/11/12 01:14:15;;;;;;;0.30;0.30;;;4.90;99.90;;;;;;5012248;28;20037;-76
2021/11/12 01:16:41;;;;;;;0.30;0.30;;;5.00;99.90;;;;;;5012354;28;20033;-76
2021/11/12 01:19:09;;;;;;;0.55;0.55;;;4.90;99.90;;;;;;5012132;28;20026;-76
2021/11/12 01:21:37;;;;;;;3.03;1.33;;;4.70;99.90;;;;;;5012421;28;20026;-76
2021/11/12 01:24:04;;;;;;;1.25;1.25;;;4.70;99.90;;;;;;5012228;28;20164;-76
2021/11/12 01:26:30;;;;;;;0.80;0.80;;;4.50;99.90;;;;;;5012074;28;20390;-76
2021/11/12 01:28:57;;;;;;;0.65;0.65;;;4.30;99.90;;;;;;5010839;28;20033;-76
2021/11/12 01:31:29;;;;;;;1.35;1.27;;;4.00;99.90;;;;;;5012034;28;20030;-77
2021/11/12 01:34:00;;;;;;;0.30;0.30;;;3.90;99.90;;;;;;5012060;28;20026;-76
2021/11/12 01:36:34;;;;;;;0.40;0.40;;;3.80;99.90;;;;;;5011825;28;20026;-75
2021/11/12 01:39:06;;;;;;;0.30;0.30;;;3.90;99.90;;;;;;5010896;28;20636;-76
2021/11/12 01:41:32;;;;;;;;;;;4.00;99.90;;;;;;5012452;28;20522;-76
2021/11/12 01:44:03;;;;;;;0.30;0.30;;;4.10;99.90;;;;;;5012105;28;19910;-76
2021/11/12 01:46:37;;;;;;;0.20;0.20;;;4.10;99.90;;;;;;5010563;28;20371;-76
2021/11/12 01:51:48;;;;;;;1.95;1.85;;;4.20;99.90;;;;;;5011906;28;20029;-76
2021/11/12 01:56:57;;;;;;;0.30;0.30;;;4.60;99.90;;;;;;5011747;28;20093;-77
2021/11/12 01:59:23;;;;;;;0.32;0.32;;;4.60;99.90;;;;;;5010775;28;20022;-76
2021/11/12 02:01:53;;;;;;;0.50;0.50;;;4.30;99.90;;;;;;5011806;28;20121;-76
2021/11/12 02:04:28;;;;;;;0.75;0.75;;;4.20;99.90;;;;;;5011795;28;20113;-76
2021/11/12 02:06:56;;;;;;;0.20;0.20;;;4.20;99.90;;;;;;5011847;28;20025;-76
2021/11/12 02:09:25;;;;;;;0.30;0.30;;;4.00;99.90;;;;;;5011747;28;20061;-77
2021/11/12 02:11:59;;;;;;;0.30;0.30;;;4.00;99.90;;;;;;5011660;28;20026;-76
2021/11/12 02:14:28;;;;;;;0.30;0.30;;;4.00;99.90;;;;;;5010261;28;20030;-77
2021/11/12 02:17:12;;;;;;;0.50;0.50;;;4.00;99.90;;;;;;5010237;28;20109;-75
2021/11/12 02:19:47;;;;;;;3.65;3.45;;;4.10;99.90;;;;;;5011631;28;20209;-76
2021/11/12 02:22:14;;;;;;;1.00;1.00;;;4.10;99.90;;;;;;5013058;28;20014;-76
2021/11/12 02:24:48;;;;;;;0.73;0.73;;;3.90;99.90;;;;;;5015205;28;20343;-74
2021/11/12 02:27:17;;;;;;;1.30;1.00;;;4.00;99.90;;;;;;5013982;28;20137;-76
2021/11/12 02:29:46;;;;;;;0.52;0.52;;;3.90;99.90;;;;;;5014103;28;20037;-76
2021/11/12 02:32:38;;;;;;;1.73;1.63;;;3.90;99.90;;;;;;5013982;28;20033;-76
2021/11/12 02:35:04;;;;;;;;;;;4.00;99.90;;;;;;5013336;28;20113;-76
2021/11/12 02:37:32;;;;;;;0.30;0.30;;;4.00;99.90;;;;;;5015128;28;19999;-76
2021/11/12 02:39:58;;;;;;;0.30;0.30;;;4.00;99.90;;;;;;5014850;28;20033;-76
2021/11/12 02:42:26;;;;;;;0.30;0.30;;;3.90;99.90;;;;;;5015016;28;20386;-75
2021/11/12 02:44:52;;;;;;;0.55;0.55;;;3.80;99.90;;;;;;5014751;28;20029;-76
2021/11/12 02:47:20;;;;;;;0.30;0.30;;;3.70;99.90;;;;;;5014895;28;20030;-76
2021/11/12 02:49:46;;;;;;;1.20;1.10;;;3.60;99.90;;;;;;5014738;28;20029;-76
2021/11/12 02:52:15;;;;;;;0.25;0.25;;;3.70;99.90;;;;;;5014772;28;20022;-76
2021/11/12 02:54:41;;;;;;;0.55;0.55;;;3.80;99.90;;;;;;5014554;28;20030;-76
2021/11/12 02:57:07;;;;;;;0.40;0.40;;;3.80;99.90;;;;;;5014757;28;20513;-76
2021/11/12 02:59:34;;;;;;;0.47;0.47;;;3.80;99.90;;;;;;5014552;28;20018;-76
2021/11/12 03:02:05;;;;;;;0.95;0.95;;;3.80;99.90;;;;;;5013444;28;20080;-76
2021/11/12 03:04:31;;;;;;;0.90;0.90;;;3.80;99.90;;;;;;5014477;28;20021;-77
2021/11/12 03:06:57;;;;;;;1.45;1.35;;;3.90;99.90;;;;;;5014478;28;20038;-76
2021/11/12 03:09:32;;;;;;;0.30;0.30;;;3.70;99.90;;;;;;5013232;28;20069;-76
2021/11/12 03:11:59;;;;;;;0.30;0.30;;;3.50;99.90;;;;;;5014413;28;20104;-77
2021/11/12 03:14:25;;;;;;;1.27;1.27;;;3.50;99.90;;;;;;5014128;28;20506;-77
2021/11/12 03:16:51;;;;;;;0.60;0.60;;;3.60;99.90;;;;;;5014308;28;20050;-76
2021/11/12 03:19:20;;;;;;;2.95;2.75;;;3.60;99.90;;;;;;5012851;28;20026;-76
2021/11/12 03:21:46;;;;;;;0.32;0.32;;;3.50;99.90;;;;;;5014246;28;20032;-77
2021/11/12 03:24:26;;;;;;;1.70;1.58;;;3.60;99.90;;;;;;5012932;28;20025;-76
2021/11/12 04:04:44;;;;;;;0.50;0.50;;;3.50;99.90;;;;;;5013305;28;20083;-76
2021/11/12 05:45:08;;;;;;;1.80;1.67;;;3.40;99.90;;;;;;4978295;28;20046;-92
2021/11/12 05:50:33;;;;;;;0.60;0.60;;;3.40;99.90;;;;;;4978112;28;20037;-91
2021/11/12 05:55:55;;;;;;;0.82;0.82;;;3.50;99.90;;;;;;4978643;28;20535;-92
2021/11/12 05:58:33;;;;;;;0.30;0.30;;;3.60;99.90;;;;;;4967260;28;20030;-92
2021/11/12 06:01:01;;;;;;;0.55;0.55;;;3.70;99.90;;;;;;4981023;28;20058;-91
2021/11/12 06:03:27;;;;;;;0.40;0.40;;;3.70;99.90;;;;;;4983319;28;20023;-91
2021/11/12 06:05:53;;;;;;;0.70;0.70;;;3.80;99.90;;;;;;4983566;28;20023;-91
2021/11/12 06:08:18;;;;;;;2.47;1.85;;;3.70;99.90;;;;;;4984006;28;20038;-92
2021/11/12 06:10:44;;;;;;;0.30;0.30;;;3.50;99.90;;;;;;4983142;28;20041;-91
2021/11/12 06:13:11;;;;;;;0.38;0.38;;;3.40;99.90;;;;;;4982365;28;20158;-91
2021/11/12 06:15:36;;;;;;;0.30;0.30;;;3.40;99.90;;;;;;4985369;28;20022;-92
2021/11/12 06:18:25;;;;;;;0.30;0.30;;;3.50;99.90;;;;;;4982568;28;20054;-92
2021/11/12 06:21:02;;;;;;;0.75;0.75;;;3.70;99.90;;;;;;4965632;28;20577;-92
2021/11/12 06:23:57;;;;;;;1.10;0.88;;;3.50;99.90;;;;;;4991205;28;20030;-91
2021/11/12 06:26:24;;;;;;;2.10;1.42;;;3.40;99.90;;;;;;4966598;28;20488;-91
2021/11/12 06:29:32;;;;;;;0.30;0.30;;;3.50;99.90;;;;;;4978999;28;20477;-91
2021/11/12 06:32:21;;;;;;;0.30;0.30;;;3.30;99.90;;;;;;4987369;28;20026;-91
2021/11/12 06:34:50;;;;;;;0.40;0.40;;;3.40;99.90;;;;;;5015593;28;20081;-91
2021/11/12 06:41:51;;;;;;;;;;;;;;;;;;;;;
2021/11/12 06:49:16;;;;;;;0.57;0.55;;;3.50;99.90;;;;;;4996523;28;20490;-91
2021/11/12 06:50:46;;;;;;;5.32;4.97;;;3.60;99.90;;;;;;4956778;28;20030;-91
2021/11/12 06:53:27;;;;;;;0.30;0.30;;;3.70;99.90;;;;;;4974239;28;20636;-91
2021/11/12 06:56:00;;;;;;;0.40;0.40;;;3.80;99.90;;;;;;4957596;28;20070;-92
2021/11/12 06:58:33;;;;;;;0.30;0.30;;;3.90;99.90;;;;;;4957183;28;20400;-91
2021/11/12 07:01:25;;;;;;;0.35;0.35;;;3.80;99.90;;;;;;4957545;28;20028;-91
2021/11/12 07:04:10;;;;;;;0.85;0.85;;;3.80;99.90;;;;;;5015288;28;20427;-93
2021/11/12 07:06:45;;;;;;;0.65;0.57;;;3.80;99.90;;;;;;4992233;28;20026;-92
2021/11/12 07:09:11;;;;;;;0.80;0.80;;;3.80;99.90;;;;;;4991832;28;20031;-91
2021/11/12 07:11:40;;;;;;;0.30;0.30;;;3.80;99.90;;;;;;5001624;28;20027;-92
2021/11/12 07:14:16;;;;;;;0.30;0.30;;;3.80;99.90;;;;;;5017304;28;20030;-92
2021/11/12 07:16:45;;;;;;;0.52;0.52;;;3.90;99.90;;;;;;5001944;28;20026;-91
2021/11/12 07:19:11;;;;;;;0.40;0.40;;;4.10;99.90;;;;;;5017538;28;20034;-92
2021/11/12 07:21:47;;;;;;;2.20;1.95;;;4.00;99.90;;;;;;5017095;28;20237;-92
2021/11/12 07:24:15;;;;;;;0.40;0.40;;;3.90;99.90;;;;;;5000539;28;20015;-92
2021/11/12 07:26:41;;;;;;;0.38;0.38;;;3.70;99.90;;;;;;4996179;28;20030;-92
2021/11/12 07:29:10;;;;;;;0.30;0.30;;;3.60;99.90;;;;;;5007065;28;20030;-91
2021/11/12 07:31:40;;;;;;;0.55;0.55;;;3.50;99.90;;;;;;4986128;28;20050;-92
2021/11/12 07:34:06;;;;;;;2.05;1.85;;;3.70;99.90;;;;;;4986146;28;20326;-91
2021/11/12 07:36:41;;;;;;;0.30;0.30;;;3.80;99.90;;;;;;4985522;28;20399;-91
2021/11/12 07:39:20;;;;;;;0.30;0.30;;;4.10;99.90;;;;;;4990837;28;20476;-92
2021/11/12 07:42:09;;;;;;;0.40;0.40;;;4.20;99.90;;;;;;4999839;28;20011;-92
2021/11/12 07:45:04;;;;;;;0.30;0.30;;;4.20;99.90;;;;;;5010234;28;20058;-92
2021/11/12 07:47:42;;;;;;;0.30;0.30;;;3.80;99.90;;;;;;5002807;28;20018;-91
2021/11/12 07:50:09;;;;;;;0.30;0.30;;;4.00;99.90;;;;;;5000355;28;20014;-92
2021/11/12 07:52:37;;;;;;;1.65;1.55;;;4.00;99.90;;;;;;5014503;28;20046;-92
2021/11/12 07:55:09;;;;;;;0.40;0.40;;;4.10;99.90;;;;;;5015649;28;20514;-92
2021/11/12 07:57:55;;;;;;;0.50;0.50;;;4.20;99.90;;;;;;5016415;28;20022;-92
2021/11/12 08:03:46;;;;;;;1.77;1.65;;;4.40;99.90;;;;;;4998222;28;20090;-91
2021/11/12 08:06:30;;;;;;;0.50;0.50;;;4.20;99.90;;;;;;4998401;28;20031;-92
2021/11/12 08:09:14;;;;;;;0.30;0.30;;;4.10;99.90;;;;;;4995792;28;20027;-91
2021/11/12 08:11:57;;;;;;;0.30;0.30;;;4.20;99.90;;;;;;4998848;28;20015;-92
2021/11/12 08:20:41;;;;;;;0.30;0.30;;;4.40;99.90;;;;;;4997333;28;20034;-92
2021/11/12 08:23:28;;;;;;;0.43;0.43;;;4.40;99.90;;;;;;4965627;28;20070;-93
2021/11/12 08:37:54;;;;;;;0.90;0.88;;;4.60;99.90;;;;;;5027640;28;20113;-74
2021/11/12 08:40:53;;;;;;;0.65;0.65;;;4.70;99.90;;;;;;5012573;28;20504;-75
2021/11/12 08:43:52;;;;;;;0.20;0.20;;;4.60;99.90;;;;;;5012165;28;20408;-74
2021/11/12 08:48:24;;;;;;;0.30;0.30;;;4.70;99.90;;;;;;5012456;28;20152;-74
2021/11/12 08:50:52;;;;;;;0.30;0.30;;;4.60;99.90;;;;;;5011278;28;20384;-74
2021/11/12 08:53:18;;;;;;;0.30;0.30;;;4.40;99.90;;;;;;5012422;28;20470;-74
2021/11/12 08:55:45;;;;;;;0.25;0.25;;;4.40;99.90;;;;;;5012279;28;20022;-74
2021/11/12 08:58:12;;;;;;;0.30;0.30;;;4.50;99.90;;;;;;5012296;28;20393;-74
2021/11/12 09:00:40;;;;;;;1.23;1.23;;;4.70;99.90;;;;;;5010967;28;20029;-75
2021/11/12 09:03:06;;;;;;;2.20;0.80;;;4.70;99.90;;;;;;5012661;28;20029;-75
2021/11/12 09:05:33;;;;;;;0.45;0.38;;;4.60;99.90;;;;;;5019970;28;20084;-75
2021/11/12 09:07:58;;;;;;;1.08;1.08;;;4.60;99.90;;;;;;5026222;28;20028;-75
2021/11/12 09:10:26;;;;;;;0.30;0.30;;;4.70;99.90;;;;;;5031716;28;20021;-74
2021/11/12 09:13:40;;;;;;;0.40;0.40;;;4.80;99.90;;;;;;5010967;28;20026;-73
2021/11/12 09:15:48;;;;;;;0.40;0.40;;;5.10;99.90;;;;;;5003627;28;20209;-73
2021/11/12 09:18:14;;;;;;;;;;;5.30;99.90;;;;;;4994629;28;20018;-74
2021/11/12 09:20:40;;;;;;;2.35;2.15;;;5.30;99.90;;;;;;5024987;28;20262;-74
2021/11/12 09:23:06;;;;;;;2.70;2.35;;;5.20;99.90;;;;;;5031549;28;20033;-73
2021/11/12 09:25:32;;;;;;;0.40;0.40;;;4.80;99.90;;;;;;5046608;28;20045;-73
2021/11/12 09:27:57;;;;;;;0.30;0.30;;;4.80;99.90;;;;;;5029890;28;20109;-73
2021/11/12 09:30:25;;;;;;;2.75;1.63;;;5.00;99.90;;;;;;5030999;28;20029;-73
2021/11/12 09:32:55;;;;;;;0.75;0.75;;;5.00;99.90;;;;;;5029785;28;20052;-73
2021/11/12 09:35:22;;;;;;;0.20;0.20;;;5.00;99.90;;;;;;5031021;28;20080;-74
2021/11/12 09:37:48;;;;;;;1.23;0.82;;;5.20;99.90;;;;;;5017246;28;20030;-73
2021/11/12 09:40:16;;;;;;;0.30;0.30;;;5.10;99.90;;;;;;5010372;28;20044;-73
2021/11/12 09:42:43;;;;;;;0.57;0.57;;;5.00;99.90;;;;;;5011445;28;20494;-73
2021/11/12 09:45:11;;;;;;;6.85;4.43;;;5.10;99.90;;;;;;4993780;28;20030;-73
2021/11/12 09:47:38;;;;;;;0.88;0.88;;;5.30;99.90;;;;;;5011690;28;20479;-73
2021/11/12 09:50:08;;;;;;;2.42;0.90;;;5.40;99.90;;;;;;5011653;28;20029;-73
2021/11/12 09:52:34;;;;;;;0.88;0.88;;;5.50;99.90;;;;;;5010345;28;20033;-74
2021/11/12 09:55:01;;;;;;;0.68;0.68;;;5.60;99.90;;;;;;5009463;28;20026;-74
2021/11/12 09:57:27;;;;;;;0.45;0.45;;;5.70;99.90;;;;;;5009928;28;20026;-73
2021/11/12 09:59:57;;;;;;;4.13;2.38;;;5.30;99.90;;;;;;5011577;28;20484;-73
2021/11/12 10:02:26;;;;;;;0.30;0.30;;;5.20;99.90;;;;;;5011555;28;20394;-73
2021/11/12 10:04:52;;;;;;;5.55;2.05;;;5.30;99.90;;;;;;5010127;28;20482;-73
2021/11/12 10:07:18;;;;;;;0.40;0.40;;;5.50;99.90;;;;;;5011257;28;20037;-73
2021/11/12 10:09:48;;;;;;;1.98;1.85;;;5.60;99.90;;;;;;5018965;28;20030;-73
2021/11/12 10:12:14;;;;;;;0.30;0.30;;;5.50;99.90;;;;;;5027705;28;20022;-73
2021/11/12 10:14:52;;;;;;;0.20;0.20;;;5.50;99.90;;;;;;5011021;28;20113;-74
2021/11/12 10:17:22;;;;;;;1.75;1.65;;;5.50;99.90;;;;;;5010110;28;20058;-74
2021/11/12 10:19:52;;;;;;;0.30;0.30;;;5.70;99.90;;;;;;5010123;28;20057;-73
2021/11/12 10:22:22;;;;;;;0.30;0.30;;;5.70;99.90;;;;;;5011279;28;20033;-73
2021/11/12 10:24:48;;;;;;;4.10;1.17;;;5.80;99.90;;;;;;5011528;28;20509;-74
2021/11/12 10:27:16;;;;;;;0.20;0.20;;;6.10;99.90;;;;;;5029867;28;20033;-73
2021/11/12 10:29:53;;;;;;;1.40;1.30;;;5.90;99.90;;;;;;5030854;28;20026;-74
2021/11/12 10:32:23;;;;;;;0.20;0.20;;;5.90;99.90;;;;;;5029772;28;20032;-73
2021/11/12 10:34:52;;;;;;;0.73;0.73;;;5.90;99.90;;;;;;5030585;28;20047;-73
2021/11/12 10:37:25;;;;;;;5.22;4.75;;;6.10;99.90;;;;;;5029389;28;20048;-73
2021/11/12 10:39:56;;;;;;;1.25;1.20;;;6.30;99.90;;;;;;5012609;28;20025;-74
2021/11/12 10:42:28;;;;;;;0.30;0.30;;;6.30;99.90;;;;;;5030313;28;20036;-74
2021/11/12 10:45:05;;;;;;;0.40;0.40;;;6.30;99.90;;;;;;5034153;28;20389;-74
2021/11/12 10:47:33;;;;;;;0.50;0.50;;;6.30;99.90;;;;;;5033088;28;20056;-74
2021/11/12 10:50:05;;;;;;;0.40;0.40;;;6.00;99.90;;;;;;5034237;28;20030;-74
2021/11/12 10:52:32;;;;;;;3.10;1.40;;;6.00;99.90;;;;;;5034331;28;20088;-74
2021/11/12 10:55:03;;;;;;;3.95;1.77;;;6.40;99.90;;;;;;5049507;28;20026;-74
2021/11/12 10:57:55;;;;;;;1.25;1.17;;;6.30;99.90;;;;;;5032764;28;20025;-74
2021/11/12 11:00:30;;;;;;;3.22;1.27;;;6.20;99.90;;;;;;5026795;28;20363;-74
2021/11/12 11:03:08;;;;;;;1.20;1.15;;;6.20;99.90;;;;;;5009517;28;20054;-74
2021/11/12 11:05:44;;;;;;;0.20;0.20;;;6.00;99.90;;;;;;4994484;28;20018;-75
2021/11/12 11:08:25;;;;;;;2.38;0.88;;;6.00;99.90;;;;;;5006136;28;20022;-74
2021/11/12 11:11:02;;;;;;;0.20;0.20;;;6.20;99.90;;;;;;5013719;28;20205;-74
2021/11/12 11:13:35;;;;;;;0.20;0.20;;;6.50;99.90;;;;;;4994096;28;20261;-74
2021/11/12 11:16:05;;;;;;;2.92;2.70;;;6.70;99.90;;;;;;5000100;28;20021;-74
2021/11/12 11:18:36;;;;;;;1.23;1.23;;;6.70;99.90;;;;;;5013519;28;20026;-74
2021/11/12 11:21:15;;;;;;;0.40;0.40;;;6.70;99.90;;;;;;4995908;28;20022;-74
2021/11/12 11:23:44;;;;;;;0.20;0.20;;;6.70;99.90;;;;;;5012673;28;20050;-74
2021/11/12 11:26:12;;;;;;;0.52;0.52;;;6.70;99.90;;;;;;5013163;28;20096;-74
2021/11/12 11:28:38;;;;;;;0.63;0.60;;;6.70;99.90;;;;;;5012129;28;20524;-74
2021/11/12 11:31:08;;;;;;;2.75;1.15;;;6.70;99.90;;;;;;5013470;28;20021;-74
2021/11/12 11:33:39;;;;;;;0.20;0.20;;;6.40;99.90;;;;;;5011899;28;20038;-74
2021/11/12 11:36:06;;;;;;;0.25;0.25;;;6.30;99.90;;;;;;5011942;28;20029;-74
2021/11/12 11:38:36;;;;;;;0.20;0.20;;;6.30;99.90;;;;;;4995160;28;20394;-74
2021/11/12 11:41:05;;;;;;;0.30;0.30;;;6.30;99.90;;;;;;5012105;28;20022;-74
2021/11/12 11:43:33;;;;;;;0.35;0.35;;;6.40;99.90;;;;;;5010762;28;20419;-75
2021/11/12 11:46:03;;;;;;;0.20;0.20;;;6.30;99.90;;;;;;5013095;28;20315;-74
2021/11/12 11:48:34;;;;;;;0.77;0.77;;;6.40;99.90;;;;;;5013158;28;20303;-73
2021/11/12 11:51:00;;;;;;;0.30;0.30;;;6.40;99.90;;;;;;5011727;28;20038;-74
2021/11/12 11:53:45;;;;;;;6.22;3.30;;;6.40;99.90;;;;;;5011334;28;20057;-74
2021/11/12 11:56:26;;;;;;;0.30;0.30;;;6.50;99.90;;;;;;5028405;28;20025;-73
2021/11/12 11:59:10;;;;;;;4.55;3.65;;;6.50;99.90;;;;;;4995362;28;20022;-74
2021/11/12 12:01:56;;;;;;;0.30;0.30;;;6.30;99.90;;;;;;5012907;28;20017;-74
2021/11/12 12:04:27;;;;;;;0.32;0.32;;;6.30;99.90;;;;;;5011292;28;20509;-74
2021/11/12 12:07:01;;;;;;;1.52;1.42;;;6.20;99.90;;;;;;5011656;28;20022;-74
2021/11/12 12:10:05;;;;;;;0.30;0.30;;;6.30;99.90;;;;;;4995141;28;20076;-75
2021/11/12 12:12:31;;;;;;;0.30;0.30;;;6.40;99.90;;;;;;5012638;28;20025;-74
2021/11/12 12:15:23;;;;;;;0.73;0.73;;;6.40;99.90;;;;;;5011108;28;20497;-74
2021/11/12 12:17:50;;;;;;;;;;;6.40;99.90;;;;;;5008874;28;20034;-74
2021/11/12 12:20:52;;;;;;;0.50;0.50;;;6.40;99.90;;;;;;5012518;28;19905;-74
2021/11/12 12:40:23;;;;;;;2.45;1.75;;;6.40;99.90;;;;;;5011794;28;20477;-74
2021/11/12 13:25:35;;;;;;;0.30;0.30;;;6.00;99.90;;;;;;5011286;28;20156;-74
2021/11/12 13:28:34;;;;;;;0.30;0.30;;;6.00;99.90;;;;;;5010475;28;20030;-74
2021/11/12 13:31:09;;;;;;;0.30;0.30;;;6.20;99.90;;;;;;5011720;28;20037;-74
2021/11/12 13:33:34;;;;;;;2.10;1.73;;;6.00;99.90;;;;;;5011892;28;20030;-75
2021/11/12 13:36:06;;;;;;;0.30;0.30;;;6.00;99.90;;;;;;5010139;28;20029;-74
2021/11/12 13:38:44;;;;;;;0.30;0.30;;;6.10;99.90;;;;;;5010247;28;20501;-75
2021/11/12 13:41:14;;;;;;;0.77;0.77;;;6.20;99.90;;;;;;5011298;28;20072;-74
2021/11/12 13:43:43;;;;;;;0.55;0.55;;;6.30;99.90;;;;;;5011551;28;20053;-74
2021/11/12 13:46:09;;;;;;;0.35;0.35;;;6.40;99.90;;;;;;5011009;28;20025;-74
2021/11/12 13:49:01;;;;;;;0.22;0.22;;;6.50;99.90;;;;;;5011366;28;20026;-74
2021/11/12 13:51:30;;;;;;;1.35;0.98;;;6.50;99.90;;;;;;5008561;28;20033;-74
2021/11/12 13:53:57;;;;;;;0.20;0.20;;;6.50;99.90;;;;;;5011254;28;20061;-74
2021/11/12 13:56:25;;;;;;;0.30;0.30;;;6.50;99.90;;;;;;5011305;28;20125;-74
2021/11/12 13:59:10;;;;;;;0.32;0.32;;;6.50;99.90;;;;;;5011067;28;20029;-74
2021/11/12 14:01:37;;;;;;;0.20;0.20;;;6.40;99.90;;;;;;5009990;28;20025;-74
2021/11/12 14:04:19;;;;;;;1.35;1.10;;;6.20;99.90;;;;;;5010068;28;20021;-74
2021/11/12 14:06:47;;;;;;;1.33;0.90;;;6.30;99.90;;;;;;5009901;28;20036;-75
2021/11/12 14:09:18;;;;;;;0.40;0.40;;;6.20;99.90;;;;;;4993422;28;20113;-74
2021/11/12 14:11:44;;;;;;;0.20;0.20;;;6.10;99.90;;;;;;5011223;28;20048;-74
2021/11/12 14:14:18;;;;;;;0.30;0.30;;;6.00;99.90;;;;;;5011052;28;20088;-74
2021/11/12 14:16:51;;;;;;;0.20;0.20;;;6.00;99.90;;;;;;5009803;28;20048;-74
2021/11/12 14:22:32;;;;;;;0.20;0.20;;;6.10;99.90;;;;;;5015055;28;20050;-74
2021/11/12 14:25:15;;;;;;;0.20;0.20;;;6.00;99.90;;;;;;5014711;28;20022;-74
2021/11/12 14:27:51;;;;;;;0.20;0.20;;;6.20;99.90;;;;;;5013631;28;20037;-75
2021/11/12 14:30:45;;;;;;;0.40;0.40;;;6.20;99.90;;;;;;5013280;28;20504;-75
2021/11/12 14:33:14;;;;;;;0.40;0.40;;;6.20;99.90;;;;;;5012270;28;20021;-75
2021/11/12 14:40:59;;;;;;;0.20;0.20;;;6.30;99.90;;;;;;5014391;28;19993;-75
2021/11/12 14:46:32;;;;;;;0.30;0.30;;;6.10;99.90;;;;;;5013430;28;20100;-74
2021/11/12 14:49:26;;;;;;;0.52;0.52;;;6.20;99.90;;;;;;5012812;28;20509;-74
2021/11/12 14:54:29;;;;;;;4.22;2.03;;;6.20;99.90;;;;;;5014382;28;20060;-75
2021/11/12 14:56:56;;;;;;;0.43;0.43;;;6.30;99.90;;;;;;5014387;28;20097;-75
2021/11/12 14:59:22;;;;;;;0.50;0.50;;;6.30;99.90;;;;;;5012547;28;20030;-75
2021/11/12 15:01:47;;;;;;;0.20;0.20;;;6.20;99.90;;;;;;5012565;28;20487;-75
2021/11/12 15:04:16;;;;;;;0.20;0.20;;;6.30;99.90;;;;;;5014456;28;20509;-75
2021/11/12 15:06:45;;;;;;;0.30;0.30;;;6.30;99.90;;;;;;4997419;28;20033;-75
2021/11/12 15:09:34;;;;;;;0.57;0.57;;;6.20;99.90;;;;;;5014104;28;20045;-74
2021/11/12 15:12:00;;;;;;;1.80;0.95;;;6.20;99.90;;;;;;5011931;28;20136;-74
2021/11/12 15:14:27;;;;;;;3.42;3.15;;;6.00;99.90;;;;;;4995985;28;20117;-74
2021/11/12 15:16:53;;;;;;;0.45;0.45;;;5.90;99.90;;;;;;5013685;28;20053;-74
2021/11/12 15:19:21;;;;;;;0.90;0.90;;;6.00;99.90;;;;;;5012285;28;20478;-74
2021/11/12 15:24:29;;;;;;;0.55;0.55;;;6.00;99.90;;;;;;5012375;28;20034;-74
2021/11/12 15:29:53;;;;;;;0.20;0.20;;;6.10;99.90;;;;;;5010853;28;20021;-74
2021/11/12 15:32:33;;;;;;;0.30;0.30;;;6.20;99.90;;;;;;5011993;28;20030;-74
2021/11/12 15:35:05;;;;;;;0.47;0.47;;;6.30;99.90;;;;;;5011647;28;20048;-74
2021/11/12 15:40:06;;;;;;;0.20;0.20;;;5.90;99.90;;;;;;5011920;28;20026;-74
2021/11/12 15:42:46;;;;;;;0.32;0.32;;;5.90;99.90;;;;;;5013197;28;20049;-74
2021/11/12 15:47:49;;;;;;;0.30;0.30;;;6.00;99.90;;;;;;5011798;28;20025;-75
2021/11/12 15:53:09;;;;;;;0.28;0.28;;;6.00;99.90;;;;;;5012843;28;20270;-74
2021/11/12 15:55:47;;;;;;;1.05;1.05;;;5.90;99.90;;;;;;4995370;28;20486;-74
2021/11/12 16:01:20;;;;;;;0.30;0.30;;;5.70;99.90;;;;;;5011496;28;20058;-74
2021/11/12 16:14:59;;;;;;;0.50;0.50;;;5.60;99.90;;;;;;5012488;28;20030;-74
2021/11/12 16:25:38;;;;;;;0.20;0.20;;;5.70;99.90;;;;;;5011140;28;20065;-75
2021/11/12 16:28:06;;;;;;;0.20;0.20;;;5.70;99.90;;;;;;5012282;28;20025;-75
2021/11/12 16:30:36;;;;;;;0.28;0.28;;;5.80;99.90;;;;;;5011986;28;20022;-75
2021/11/12 16:33:05;;;;;;;0.95;0.95;;;5.80;99.90;;;;;;5010906;28;20508;-75
2021/11/12 16:35:34;;;;;;;0.20;0.20;;;5.70;99.90;;;;;;5010817;28;20026;-75
2021/11/12 16:38:26;;;;;;;0.35;0.35;;;5.40;99.90;;;;;;5010814;28;20026;-75
2021/11/12 16:41:08;;;;;;;2.55;2.40;;;5.40;99.90;;;;;;5009953;28;20080;-74
2021/11/12 16:46:42;;;;;;;0.28;0.28;;;5.10;99.90;;;;;;5011219;28;20104;-74
2021/11/12 16:49:16;;;;;;;0.20;0.20;;;5.20;99.90;;;;;;5011212;28;20241;-74
2021/11/12 16:56:55;;;;;;;0.20;0.20;;;5.40;99.90;;;;;;5010778;28;20026;-74
2021/11/12 17:04:27;;;;;;;0.20;0.20;;;5.10;99.90;;;;;;5010994;28;20500;-73
2021/11/12 17:07:09;;;;;;;1.92;1.13;;;5.00;99.90;;;;;;5015137;28;20025;-75
2021/11/12 17:17:56;;;;;;;0.30;0.30;;;5.20;99.90;;;;;;5011901;28;20030;-74
2021/11/12 17:20:39;;;;;;;0.50;0.50;;;5.30;99.90;;;;;;5010836;28;20022;-74
2021/11/12 17:47:41;;;;;;;0.30;0.30;;;5.00;99.90;;;;;;4939019;28;20054;-74
2021/11/12 17:52:59;;;;;;;0.20;0.20;;;5.20;99.90;;;;;;5026360;28;20471;-74
2021/11/12 18:04:04;;;;;;;0.50;0.50;;;5.10;99.90;;;;;;5035476;28;20013;-74
2021/11/12 18:06:41;;;;;;;0.20;0.20;;;5.10;99.90;;;;;;5034587;28;20037;-74
2021/11/12 21:48:11;;;;;;;0.20;0.20;;;4.70;99.90;;;;;;5010605;28;20038;-74
2021/11/12 21:50:38;;;;;;;0.75;0.75;;;4.80;99.90;;;;;;5010477;28;20030;-74
2021/11/12 21:53:05;;;;;;;0.32;0.32;;;4.80;99.90;;;;;;5010604;28;20034;-75
2021/11/12 21:55:32;;;;;;;0.25;0.25;;;4.60;99.90;;;;;;5010532;28;20030;-74
2021/11/12 21:57:59;;;;;;;0.20;0.20;;;4.70;99.90;;;;;;5012031;28;20022;-74
2021/11/12 22:00:26;;;;;;;1.08;0.47;;;4.60;99.90;;;;;;5011650;28;20026;-74
2021/11/12 22:02:52;;;;;;;1.75;1.65;;;4.70;99.90;;;;;;5010597;28;20032;-74
2021/11/12 22:05:18;;;;;;;0.20;0.20;;;4.70;99.90;;;;;;5011768;28;20421;-74
2021/11/12 22:07:43;;;;;;;0.20;0.20;;;4.80;99.90;;;;;;5011884;28;20033;-74
2021/11/12 22:10:10;;;;;;;0.20;0.20;;;4.90;99.90;;;;;;5010589;28;20033;-74
2021/11/12 22:12:36;;;;;;;0.20;0.20;;;4.90;99.90;;;;;;5010451;28;20022;-74
2021/11/12 22:15:02;;;;;;;0.50;0.50;;;5.00;99.90;;;;;;5011559;28;20030;-74
2021/11/12 22:17:28;;;;;;;0.10;0.10;;;5.10;99.90;;;;;;5011613;28;20026;-74
2021/11/12 22:19:54;;;;;;;2.30;2.15;;;5.10;99.90;;;;;;5010267;28;20129;-74
2021/11/12 22:22:20;;;;;;;0.47;0.47;;;5.10;99.90;;;;;;5011615;28;20026;-74
2021/11/12 22:24:46;;;;;;;0.35;0.35;;;5.10;99.90;;;;;;4993874;28;20029;-74
2021/11/12 22:27:12;;;;;;;1.60;1.60;;;5.20;99.90;;;;;;5010177;28;20033;-74
2021/11/12 22:29:38;;;;;;;0.20;0.20;;;5.30;99.90;;;;;;5011416;28;20092;-74
2021/11/12 22:32:04;;;;;;;0.30;0.30;;;5.20;99.90;;;;;;5010213;28;20168;-74
2021/11/12 22:34:30;;;;;;;0.20;0.20;;;5.10;99.90;;;;;;5011169;28;20030;-74
2021/11/12 22:36:56;;;;;;;0.20;0.20;;;5.20;99.90;;;;;;5010226;28;20026;-74
2021/11/12 22:39:22;;;;;;;0.65;0.50;;;5.20;99.90;;;;;;5013906;28;20394;-74
2021/11/12 22:41:50;;;;;;;0.20;0.20;;;5.10;99.90;;;;;;5013904;28;20549;-74
2021/11/12 22:44:17;;;;;;;0.32;0.32;;;5.10;99.90;;;;;;5015022;28;20025;-74
2021/11/12 22:46:43;;;;;;;0.57;0.57;;;5.00;99.90;;;;;;5028815;23;20408;-74
2021/11/12 22:49:10;;;;;;;0.50;0.50;;;5.00;99.90;;;;;;5015511;28;20416;-74
2021/11/12 22:51:37;;;;;;;1.08;1.02;;;4.90;99.90;;;;;;5015097;28;20056;-74
2021/11/12 22:54:04;;;;;;;0.40;0.40;;;4.80;99.90;;;;;;5014979;28;20034;-73
2021/11/12 22:56:30;;;;;;;0.20;0.20;;;4.80;99.90;;;;;;5014802;28;20076;-74
2021/11/12 22:58:56;;;;;;;0.20;0.20;;;4.70;99.90;;;;;;4997255;28;20125;-74
2021/11/12 23:01:31;;;;;;;0.20;0.20;;;4.70;99.90;;;;;;5015026;28;20053;-74
2021/11/12 23:03:57;;;;;;;0.30;0.30;;;4.60;99.90;;;;;;5014666;28;20503;-73
2021/11/12 23:06:24;;;;;;;0.10;0.10;;;4.70;99.90;;;;;;5013393;28;20034;-73
2021/11/12 23:08:51;;;;;;;0.20;0.20;;;4.80;99.90;;;;;;5014663;28;20041;-74
2021/11/12 23:11:18;;;;;;;0.20;0.20;;;4.70;99.90;;;;;;5014696;28;20034;-74